sensor_id;sensor_type;location;lat;lon;timestamp;pressure;altitude;pressure_sealevel;temperature;humidity
6514;BME280;3290;47.716;9.070;2022-11-12T00:00:49;98584.50;;;10.22;100.00
6514;BME280;3290;47.716;9.070;2022-11-12T00:03:15;98585.28;;;9.93;100.00
6514;BME280;3290;47.716;9.070;2022-11-12T00:05:40;98587.84;;;10.08;100.00
6514;BME280;3290;47.716;9.070;2022-11-12T00:08:06;98596.44;;;9.71;100.00
6514;BME280;3290;47.716;9.070;2022-11-12T00:10:31;98581.66;;;10.01;100.00
6514;BME280;3290;47.716;9.070;2022-11-12T00:12:57;98589.19;;;9.97;100.00
6514;BME280;3290;47.716;9.070;2022-11-12T00:15:22;98592.25;;;10.08;100.00
6514;BME280;3290;47.716;9.070;2022-11-12T00:17:48;98587.84;;;10.08;100.00
6514;BME280;3290;47.716;9.070;2022-11-12T00:20:13;98596.38;;;9.87;100.00
6514;BME280;3290;47.716;9.070;2022-11-12T00:22:39;98587.53;;;9.96;100.00
6514;BME280;3290;47.716;9.070;2022-11-12T00:25:05;98587.91;;;9.93;100.00
6514;BME280;3290;47.716;9.070;2022-11-12T00:27:31;98592.16;;;9.78;100.00
6514;BME280;3290;47.716;9.070;2022-11-12T00:29:56;98591.69;;;9.74;100.00
6514;BME280;3290;47.716;9.070;2022-11-12T00:32:22;98596.72;;;9.92;100.00
6514;BME280;3290;47.716;9.070;2022-11-12T00:34:47;98586.59;;;9.73;100.00
6514;BME280;3290;47.716;9.070;2022-11-12T00:37:12;98582.00;;;9.91;100.00
6514;BME280;3290;47.716;9.070;2022-11-12T00:39:38;98591.84;;;9.81;100.00
6514;BME280;3290;47.716;9.070;2022-11-12T00:42:03;98595.09;;;9.83;100.00
6514;BME280;3290;47.716;9.070;2022-11-12T00:44:28;98586.59;;;9.89;100.00
6514;BME280;3290;47.716;9.070;2022-11-12T00:46:55;98591.81;;;9.89;100.00
6514;BME280;3290;47.716;9.070;2022-11-12T00:49:20;98589.38;;;9.87;100.00
6514;BME280;3290;47.716;9.070;2022-11-12T00:51:46;98593.94;;;10.01;100.00
6514;BME280;3290;47.716;9.070;2022-11-12T00:54:11;98594.09;;;9.92;100.00
6514;BME280;3290;47.716;9.070;2022-11-12T00:56:37;98589.84;;;9.91;100.00
6514;BME280;3290;47.716;9.070;2022-11-12T00:59:02;98582.78;;;9.99;100.00
6514;BME280;3290;47.716;9.070;2022-11-12T01:01:27;98576.44;;;9.94;100.00
6514;BME280;3290;47.716;9.070;2022-11-12T01:03:53;98574.44;;;9.96;100.00
6514;BME280;3290;47.716;9.070;2022-11-12T01:06:21;98571.16;;;10.01;100.00
6514;BME280;3290;47.716;9.070;2022-11-12T01:08:47;98578.38;;;9.99;100.00
6514;BME280;3290;47.716;9.070;2022-11-12T01:11:16;98573.81;;;9.94;100.00
6514;BME280;3290;47.716;9.070;2022-11-12T01:13:43;98569.66;;;10.07;100.00
6514;BME280;3290;47.716;9.070;2022-11-12T01:16:14;98574.69;;;10.16;100.00
6514;BME280;3290;47.716;9.070;2022-11-12T01:18:41;98577.66;;;10.13;100.00
6514;BME280;3290;47.716;9.070;2022-11-12T01:21:07;98565.78;;;9.95;100.00
6514;BME280;3290;47.716;9.070;2022-11-12T01:23:33;98570.63;;;10.06;100.00
6514;BME280;3290;47.716;9.070;2022-11-12T01:26:07;98567.03;;;10.07;100.00
6514;BME280;3290;47.716;9.070;2022-11-12T01:28:33;98575.78;;;9.92;100.00
6514;BME280;3290;47.716;9.070;2022-11-12T01:31:12;98571.00;;;10.03;100.00
6514;BME280;3290;47.716;9.070;2022-11-12T01:33:40;98566.97;;;9.93;100.00
6514;BME280;3290;47.716;9.070;2022-11-12T01:36:06;98561.53;;;9.86;100.00
6514;BME280;3290;47.716;9.070;2022-11-12T01:38:39;98567.00;;;9.77;100.00
6514;BME280;3290;47.716;9.070;2022-11-12T01:41:06;98555.50;;;9.86;100.00
6514;BME280;3290;47.716;9.070;2022-11-12T01:43:32;98562.03;;;9.90;100.00
6514;BME280;3290;47.716;9.070;2022-11-12T01:46:03;98555.66;;;9.92;100.00
6514;BME280;3290;47.716;9.070;2022-11-12T01:48:34;98547.53;;;9.71;100.00
6514;BME280;3290;47.716;9.070;2022-11-12T01:51:02;98550.66;;;9.67;100.00
6514;BME280;3290;47.716;9.070;2022-11-12T01:53:30;98550.66;;;9.67;100.00
6514;BME280;3290;47.716;9.070;2022-11-12T01:55:59;98547.72;;;9.62;100.00
6514;BME280;3290;47.716;9.070;2022-11-12T01:58:28;98548.88;;;9.59;100.00
6514;BME280;3290;47.716;9.070;2022-11-12T02:00:56;98546.38;;;9.74;100.00
6514;BME280;3290;47.716;9.070;2022-11-12T02:03:23;98546.06;;;9.77;100.00
6514;BME280;3290;47.716;9.070;2022-11-12T02:06:10;98553.00;;;9.46;100.00
6514;BME280;3290;47.716;9.070;2022-11-12T02:08:37;98550.03;;;9.57;100.00
6514;BME280;3290;47.716;9.070;2022-11-12T02:11:15;98552.31;;;9.68;100.00
6514;BME280;3290;47.716;9.070;2022-11-12T02:13:42;98553.28;;;9.67;100.00
6514;BME280;3290;47.716;9.070;2022-11-12T02:16:30;98552.69;;;9.49;100.00
6514;BME280;3290;47.716;9.070;2022-11-12T02:18:56;98545.47;;;9.51;100.00
6514;BME280;3290;47.716;9.070;2022-11-12T02:21:23;98549.53;;;9.54;100.00
6514;BME280;3290;47.716;9.070;2022-11-12T02:23:59;98545.34;;;9.37;100.00
6514;BME280;3290;47.716;9.070;2022-11-12T02:26:25;98545.91;;;9.70;100.00
6514;BME280;3290;47.716;9.070;2022-11-12T02:28:53;98543.53;;;9.91;100.00
6514;BME280;3290;47.716;9.070;2022-11-12T02:31:18;98535.75;;;9.75;100.00
6514;BME280;3290;47.716;9.070;2022-11-12T02:33:44;98549.38;;;9.55;100.00
6514;BME280;3290;47.716;9.070;2022-11-12T02:36:09;98547.34;;;9.73;100.00
6514;BME280;3290;47.716;9.070;2022-11-12T02:38:34;98544.03;;;9.87;100.00
6514;BME280;3290;47.716;9.070;2022-11-12T02:41:00;98550.97;;;9.64;100.00
6514;BME280;3290;47.716;9.070;2022-11-12T02:43:25;98534.25;;;9.73;100.00
6514;BME280;3290;47.716;9.070;2022-11-12T02:45:51;98525.78;;;9.71;100.00
6514;BME280;3290;47.716;9.070;2022-11-12T02:48:16;98541.47;;;9.71;100.00
6514;BME280;3290;47.716;9.070;2022-11-12T02:50:41;98537.41;;;9.68;100.00
6514;BME280;3290;47.716;9.070;2022-11-12T02:53:06;98542.50;;;9.62;100.00
6514;BME280;3290;47.716;9.070;2022-11-12T02:55:32;98540.47;;;9.80;100.00
6514;BME280;3290;47.716;9.070;2022-11-12T02:57:58;98539.78;;;9.94;100.00
6514;BME280;3290;47.716;9.070;2022-11-12T03:00:23;98532.97;;;9.69;100.00
6514;BME280;3290;47.716;9.070;2022-11-12T03:02:49;98544.13;;;9.63;100.00
6514;BME280;3290;47.716;9.070;2022-11-12T03:05:25;98540.19;;;9.67;100.00
6514;BME280;3290;47.716;9.070;2022-11-12T03:07:57;98524.31;;;9.68;100.00
6514;BME280;3290;47.716;9.070;2022-11-12T03:10:24;98531.84;;;9.71;100.00
6514;BME280;3290;47.716;9.070;2022-11-12T03:12:50;98526.25;;;9.74;100.00
6514;BME280;3290;47.716;9.070;2022-11-12T03:15:15;98529.47;;;9.46;100.00
6514;BME280;3290;47.716;9.070;2022-11-12T03:17:42;98525.81;;;9.63;100.00
6514;BME280;3290;47.716;9.070;2022-11-12T03:20:08;98535.16;;;9.57;100.00
6514;BME280;3290;47.716;9.070;2022-11-12T03:22:34;98538.44;;;9.59;100.00
6514;BME280;3290;47.716;9.070;2022-11-12T03:24:59;98534.25;;;9.81;100.00
6514;BME280;3290;47.716;9.070;2022-11-12T03:27:24;98524.94;;;9.78;100.00
6514;BME280;3290;47.716;9.070;2022-11-12T03:29:50;98526.72;;;9.78;100.00
6514;BME280;3290;47.716;9.070;2022-11-12T03:32:15;98527.09;;;9.75;100.00
6514;BME280;3290;47.716;9.070;2022-11-12T03:34:40;98521.66;;;9.76;100.00
6514;BME280;3290;47.716;9.070;2022-11-12T03:37:06;98518.56;;;9.73;100.00
6514;BME280;3290;47.716;9.070;2022-11-12T03:39:34;98516.25;;;9.78;100.00
6514;BME280;3290;47.716;9.070;2022-11-12T03:41:59;98521.13;;;9.97;100.00
6514;BME280;3290;47.716;9.070;2022-11-12T03:44:24;98527.78;;;10.07;100.00
6514;BME280;3290;47.716;9.070;2022-11-12T03:46:50;98524.41;;;9.91;100.00
6514;BME280;3290;47.716;9.070;2022-11-12T03:49:15;98525.06;;;9.85;100.00
6514;BME280;3290;47.716;9.070;2022-11-12T03:51:40;98528.00;;;9.90;100.00
6514;BME280;3290;47.716;9.070;2022-11-12T03:54:06;98523.75;;;9.51;100.00
6514;BME280;3290;47.716;9.070;2022-11-12T03:56:31;98521.00;;;9.74;100.00
6514;BME280;3290;47.716;9.070;2022-11-12T03:58:56;98525.50;;;9.66;100.00
6514;BME280;3290;47.716;9.070;2022-11-12T04:01:22;98516.31;;;9.62;100.00
6514;BME280;3290;47.716;9.070;2022-11-12T04:03:47;98525.28;;;9.67;100.00
6514;BME280;3290;47.716;9.070;2022-11-12T04:06:12;98532.56;;;9.50;100.00
6514;BME280;3290;47.716;9.070;2022-11-12T04:08:56;98540.88;;;9.61;100.00
6514;BME280;3290;47.716;9.070;2022-11-12T04:11:22;98529.28;;;9.56;100.00
6514;BME280;3290;47.716;9.070;2022-11-12T04:13:47;98540.09;;;9.53;100.00
6514;BME280;3290;47.716;9.070;2022-11-12T04:16:18;98539.59;;;9.49;100.00
6514;BME280;3290;47.716;9.070;2022-11-12T04:19:03;98533.97;;;9.68;100.00
6514;BME280;3290;47.716;9.070;2022-11-12T04:22:09;98527.72;;;9.77;100.00
6514;BME280;3290;47.716;9.070;2022-11-12T04:24:40;98518.97;;;10.00;100.00
6514;BME280;3290;47.716;9.070;2022-11-12T04:27:25;98508.94;;;9.73;100.00
6514;BME280;3290;47.716;9.070;2022-11-12T04:29:52;98502.59;;;9.68;100.00
6514;BME280;3290;47.716;9.070;2022-11-12T04:32:56;98499.00;;;9.61;100.00
6514;BME280;3290;47.716;9.070;2022-11-12T04:35:25;98501.88;;;9.74;100.00
6514;BME280;3290;47.716;9.070;2022-11-12T04:37:51;98505.19;;;9.68;100.00
6514;BME280;3290;47.716;9.070;2022-11-12T04:40:25;98499.59;;;9.79;100.00
6514;BME280;3290;47.716;9.070;2022-11-12T04:43:11;98497.84;;;9.63;100.00
6514;BME280;3290;47.716;9.070;2022-11-12T04:45:56;98488.53;;;9.61;100.00
6514;BME280;3290;47.716;9.070;2022-11-12T04:48:23;98495.72;;;9.67;100.00
6514;BME280;3290;47.716;9.070;2022-11-12T04:50:56;98491.00;;;9.62;100.00
6514;BME280;3290;47.716;9.070;2022-11-12T04:53:23;98497.00;;;9.71;100.00
6514;BME280;3290;47.716;9.070;2022-11-12T04:55:50;98495.88;;;9.65;100.00
6514;BME280;3290;47.716;9.070;2022-11-12T04:58:15;98496.41;;;9.53;100.00
6514;BME280;3290;47.716;9.070;2022-11-12T05:00:41;98494.81;;;9.44;100.00
6514;BME280;3290;47.716;9.070;2022-11-12T05:03:06;98496.41;;;9.61;100.00
6514;BME280;3290;47.716;9.070;2022-11-12T05:05:32;98501.09;;;9.65;100.00
6514;BME280;3290;47.716;9.070;2022-11-12T05:08:01;98495.75;;;9.59;100.00
6514;BME280;3290;47.716;9.070;2022-11-12T05:10:27;98495.47;;;9.46;100.00
6514;BME280;3290;47.716;9.070;2022-11-12T05:12:52;98493.41;;;9.64;100.00
6514;BME280;3290;47.716;9.070;2022-11-12T05:15:17;98496.50;;;9.75;100.00
6514;BME280;3290;47.716;9.070;2022-11-12T05:17:43;98499.81;;;9.61;100.00
6514;BME280;3290;47.716;9.070;2022-11-12T05:20:13;98499.34;;;9.58;100.00
6514;BME280;3290;47.716;9.070;2022-11-12T05:22:39;98497.28;;;9.76;100.00
6514;BME280;3290;47.716;9.070;2022-11-12T05:25:06;98501.94;;;9.66;100.00
6514;BME280;3290;47.716;9.070;2022-11-12T05:27:31;98500.28;;;9.65;100.00
6514;BME280;3290;47.716;9.070;2022-11-12T05:29:57;98503.59;;;9.59;100.00
6514;BME280;3290;47.716;9.070;2022-11-12T05:32:22;98501.31;;;9.56;100.00
6514;BME280;3290;47.716;9.070;2022-11-12T05:34:47;98503.59;;;9.59;100.00
6514;BME280;3290;47.716;9.070;2022-11-12T05:37:13;98506.75;;;9.85;100.00
6514;BME280;3290;47.716;9.070;2022-11-12T05:39:39;98506.66;;;9.70;100.00
6514;BME280;3290;47.716;9.070;2022-11-12T05:42:05;98506.91;;;9.83;100.00
6514;BME280;3290;47.716;9.070;2022-11-12T05:44:31;98504.97;;;9.77;100.00
6514;BME280;3290;47.716;9.070;2022-11-12T05:46:56;98507.44;;;9.79;100.00
6514;BME280;3290;47.716;9.070;2022-11-12T05:49:22;98508.06;;;9.81;100.00
6514;BME280;3290;47.716;9.070;2022-11-12T05:51:47;98506.16;;;9.67;100.00
6514;BME280;3290;47.716;9.070;2022-11-12T05:54:12;98504.97;;;9.77;100.00
6514;BME280;3290;47.716;9.070;2022-11-12T05:56:38;98501.41;;;9.78;100.00
6514;BME280;3290;47.716;9.070;2022-11-12T05:59:06;98510.06;;;9.71;100.00
6514;BME280;3290;47.716;9.070;2022-11-12T06:01:33;98514.03;;;9.67;100.00
6514;BME280;3290;47.716;9.070;2022-11-12T06:04:00;98511.44;;;9.59;100.00
6514;BME280;3290;47.716;9.070;2022-11-12T06:06:25;98515.84;;;9.58;100.00
6514;BME280;3290;47.716;9.070;2022-11-12T06:08:51;98510.13;;;9.55;100.00
6514;BME280;3290;47.716;9.070;2022-11-12T06:11:16;98511.78;;;9.56;100.00
6514;BME280;3290;47.716;9.070;2022-11-12T06:13:42;98517.81;;;9.57;100.00
6514;BME280;3290;47.716;9.070;2022-11-12T06:16:08;98513.47;;;9.79;100.00
6514;BME280;3290;47.716;9.070;2022-11-12T06:18:33;98511.31;;;9.91;100.00
6514;BME280;3290;47.716;9.070;2022-11-12T06:21:09;98511.56;;;9.73;100.00
6514;BME280;3290;47.716;9.070;2022-11-12T06:23:44;98509.78;;;9.66;100.00
6514;BME280;3290;47.716;9.070;2022-11-12T06:26:13;98510.06;;;9.79;100.00
6514;BME280;3290;47.716;9.070;2022-11-12T06:28:38;98510.72;;;9.73;100.00
6514;BME280;3290;47.716;9.070;2022-11-12T06:31:04;98507.75;;;9.76;100.00
6514;BME280;3290;47.716;9.070;2022-11-12T06:33:30;98511.16;;;9.84;100.00
6514;BME280;3290;47.716;9.070;2022-11-12T06:35:59;98523.47;;;9.76;100.00
6514;BME280;3290;47.716;9.070;2022-11-12T06:38:32;98524.09;;;9.86;100.00
6514;BME280;3290;47.716;9.070;2022-11-12T06:40:57;98527.19;;;9.89;100.00
6514;BME280;3290;47.716;9.070;2022-11-12T06:43:24;98516.88;;;9.88;100.00
6514;BME280;3290;47.716;9.070;2022-11-12T06:45:50;98523.47;;;9.76;100.00
6514;BME280;3290;47.716;9.070;2022-11-12T06:48:15;98524.63;;;9.73;100.00
6514;BME280;3290;47.716;9.070;2022-11-12T06:50:40;98526.41;;;9.81;100.00
6514;BME280;3290;47.716;9.070;2022-11-12T06:53:06;98532.66;;;9.72;100.00
6514;BME280;3290;47.716;9.070;2022-11-12T06:55:31;98542.50;;;9.62;100.00
6514;BME280;3290;47.716;9.070;2022-11-12T06:57:56;98529.66;;;9.83;100.00
6514;BME280;3290;47.716;9.070;2022-11-12T07:00:22;98526.88;;;9.76;100.00
6514;BME280;3290;47.716;9.070;2022-11-12T07:02:48;98535.44;;;9.70;100.00
6514;BME280;3290;47.716;9.070;2022-11-12T07:05:13;98532.66;;;9.72;100.00
6514;BME280;3290;47.716;9.070;2022-11-12T07:07:39;98535.97;;;10.04;100.00
6514;BME280;3290;47.716;9.070;2022-11-12T07:10:05;98533.19;;;9.59;100.00
6514;BME280;3290;47.716;9.070;2022-11-12T07:12:34;98528.44;;;9.55;100.00
6514;BME280;3290;47.716;9.070;2022-11-12T07:15:00;98527.81;;;9.53;100.00
6514;BME280;3290;47.716;9.070;2022-11-12T07:17:25;98526.41;;;9.73;100.00
6514;BME280;3290;47.716;9.070;2022-11-12T07:19:50;98521.66;;;9.76;100.00
6514;BME280;3290;47.716;9.070;2022-11-12T07:22:16;98516.50;;;10.06;100.00
6514;BME280;3290;47.716;9.070;2022-11-12T07:24:41;98526.31;;;10.04;100.00
6514;BME280;3290;47.716;9.070;2022-11-12T07:27:07;98528.16;;;9.88;100.00
6514;BME280;3290;47.716;9.070;2022-11-12T07:29:32;98515.00;;;10.04;100.00
6514;BME280;3290;47.716;9.070;2022-11-12T07:31:57;98515.88;;;9.97;100.00
6514;BME280;3290;47.716;9.070;2022-11-12T07:34:23;98521.13;;;9.97;100.00
6514;BME280;3290;47.716;9.070;2022-11-12T07:36:48;98512.78;;;9.93;100.00
6514;BME280;3290;47.716;9.070;2022-11-12T07:39:16;98514.91;;;9.90;100.00
6514;BME280;3290;47.716;9.070;2022-11-12T07:41:42;98517.59;;;9.74;100.00
6514;BME280;3290;47.716;9.070;2022-11-12T07:44:08;98510.31;;;9.99;100.00
6514;BME280;3290;47.716;9.070;2022-11-12T07:46:33;98515.47;;;10.07;100.00
6514;BME280;3290;47.716;9.070;2022-11-12T07:48:59;98517.47;;;10.05;100.00
6514;BME280;3290;47.716;9.070;2022-11-12T07:51:26;98519.78;;;10.00;100.00
6514;BME280;3290;47.716;9.070;2022-11-12T07:53:53;98521.75;;;9.98;100.00
6514;BME280;3290;47.716;9.070;2022-11-12T07:56:21;98522.13;;;9.88;100.00
6514;BME280;3290;47.716;9.070;2022-11-12T07:58:47;98528.78;;;9.90;100.00
6514;BME280;3290;47.716;9.070;2022-11-12T08:03:59;98531.00;;;9.71;100.00
6514;BME280;3290;47.716;9.070;2022-11-12T08:06:25;98523.94;;;9.79;100.00
6514;BME280;3290;47.716;9.070;2022-11-12T08:08:55;98529.50;;;9.38;100.00
6514;BME280;3290;47.716;9.070;2022-11-12T08:11:20;98529.34;;;9.78;100.00
6514;BME280;3290;47.716;9.070;2022-11-12T08:13:46;98529.00;;;9.89;100.00
6514;BME280;3290;47.716;9.070;2022-11-12T08:16:11;98533.16;;;10.13;100.00
6514;BME280;3290;47.716;9.070;2022-11-12T08:18:37;98536.16;;;9.87;100.00
6514;BME280;3290;47.716;9.070;2022-11-12T08:21:05;98530.78;;;9.96;100.00
6514;BME280;3290;47.716;9.070;2022-11-12T08:23:31;98530.69;;;9.74;100.00
6514;BME280;3290;47.716;9.070;2022-11-12T08:26:06;98536.69;;;9.82;100.00
6514;BME280;3290;47.716;9.070;2022-11-12T08:28:34;98533.66;;;10.09;100.00
6514;BME280;3290;47.716;9.070;2022-11-12T08:31:09;98536.81;;;9.97;100.00
6514;BME280;3290;47.716;9.070;2022-11-12T08:33:35;98532.91;;;9.85;100.00
6514;BME280;3290;47.716;9.070;2022-11-12T08:36:06;98531.84;;;9.71;100.00
6514;BME280;3290;47.716;9.070;2022-11-12T08:38:32;98535.94;;;10.12;100.00
6514;BME280;3290;47.716;9.070;2022-11-12T08:41:02;98540.81;;;10.15;100.00
6514;BME280;3290;47.716;9.070;2022-11-12T08:43:28;98533.38;;;10.26;100.00
6514;BME280;3290;47.716;9.070;2022-11-12T08:45:53;98536.94;;;10.33;100.00
6514;BME280;3290;47.716;9.070;2022-11-12T08:48:18;98539.56;;;10.33;100.00
6514;BME280;3290;47.716;9.070;2022-11-12T08:50:44;98527.53;;;10.16;100.00
6514;BME280;3290;47.716;9.070;2022-11-12T08:53:11;98529.44;;;10.52;100.00
6514;BME280;3290;47.716;9.070;2022-11-12T08:55:38;98533.22;;;10.28;100.00
6514;BME280;3290;47.716;9.070;2022-11-12T08:58:04;98533.91;;;10.44;100.00
6514;BME280;3290;47.716;9.070;2022-11-12T09:00:32;98530.66;;;10.42;100.00
6514;BME280;3290;47.716;9.070;2022-11-12T09:02:59;98537.22;;;10.60;100.00
6514;BME280;3290;47.716;9.070;2022-11-12T09:05:24;98527.59;;;10.61;100.00
6514;BME280;3290;47.716;9.070;2022-11-12T09:08:08;98537.13;;;10.54;100.00
6514;BME280;3290;47.716;9.070;2022-11-12T09:10:34;98534.09;;;10.42;100.00
6514;BME280;3290;47.716;9.070;2022-11-12T09:12:59;98528.84;;;10.42;100.00
6514;BME280;3290;47.716;9.070;2022-11-12T09:15:26;98535.44;;;10.38;100.00
6514;BME280;3290;47.716;9.070;2022-11-12T09:17:59;98531.94;;;10.24;100.00
6514;BME280;3290;47.716;9.070;2022-11-12T09:20:26;98536.66;;;10.28;100.00
6514;BME280;3290;47.716;9.070;2022-11-12T09:22:53;98534.50;;;10.01;100.00
6514;BME280;3290;47.716;9.070;2022-11-12T09:25:18;98533.53;;;10.33;100.00
6514;BME280;3290;47.716;9.070;2022-11-12T09:27:44;98534.72;;;10.22;100.00
6514;BME280;3290;47.716;9.070;2022-11-12T09:30:09;98536.44;;;10.07;100.00
6514;BME280;3290;47.716;9.070;2022-11-12T09:32:35;98540.28;;;10.27;100.00
6514;BME280;3290;47.716;9.070;2022-11-12T09:35:00;98535.06;;;10.19;100.00
6514;BME280;3290;47.716;9.070;2022-11-12T09:37:26;98535.84;;;10.28;100.00
6514;BME280;3290;47.716;9.070;2022-11-12T09:39:51;98539.56;;;10.33;100.00
6514;BME280;3290;47.716;9.070;2022-11-12T09:42:20;98541.41;;;10.25;100.00
6514;BME280;3290;47.716;9.070;2022-11-12T09:45:05;98544.69;;;10.49;100.00
6514;BME280;3290;47.716;9.070;2022-11-12T09:47:37;98543.88;;;10.26;100.00
6514;BME280;3290;47.716;9.070;2022-11-12T09:50:57;98545.03;;;10.24;100.00
6514;BME280;3290;47.716;9.070;2022-11-12T09:53:32;98537.59;;;10.35;100.00
6514;BME280;3290;47.716;9.070;2022-11-12T09:56:01;98539.09;;;10.30;100.00
6514;BME280;3290;47.716;9.070;2022-11-12T09:58:30;98537.44;;;10.29;100.00
6514;BME280;3290;47.716;9.070;2022-11-12T10:01:01;98532.00;;;10.38;100.00
6514;BME280;3290;47.716;9.070;2022-11-12T10:06:23;98528.06;;;10.34;100.00
6514;BME280;3290;47.716;9.070;2022-11-12T10:09:10;98527.56;;;10.38;100.00
6514;BME280;3290;47.716;9.070;2022-11-12T10:17:24;98514.53;;;10.53;100.00
6514;BME280;3290;47.716;9.070;2022-11-12T10:25:36;98509.94;;;10.33;100.00
6514;BME280;3290;47.716;9.070;2022-11-12T10:28:29;98503.88;;;10.32;100.00
6514;BME280;3290;47.716;9.070;2022-11-12T10:31:01;98503.69;;;10.11;100.00
6514;BME280;3290;47.716;9.070;2022-11-12T10:33:31;98508.00;;;10.49;100.00
6514;BME280;3290;47.716;9.070;2022-11-12T10:36:14;98513.81;;;10.14;100.00
6514;BME280;3290;47.716;9.070;2022-11-12T10:38:42;98509.75;;;10.56;100.00
6514;BME280;3290;47.716;9.070;2022-11-12T10:41:38;98493.22;;;10.11;100.00
6514;BME280;3290;47.716;9.070;2022-11-12T10:44:05;98499.00;;;10.29;100.00
6514;BME280;3290;47.716;9.070;2022-11-12T10:46:34;98498.88;;;9.85;100.00
6514;BME280;3290;47.716;9.070;2022-11-12T10:51:38;98496.00;;;10.32;100.00
6514;BME280;3290;47.716;9.070;2022-11-12T10:56:51;98484.44;;;10.49;100.00
6514;BME280;3290;47.716;9.070;2022-11-12T10:59:24;98486.13;;;10.64;100.00
6514;BME280;3290;47.716;9.070;2022-11-12T11:01:58;98481.22;;;10.61;100.00
6514;BME280;3290;47.716;9.070;2022-11-12T11:04:30;98476.72;;;10.70;100.00
6514;BME280;3290;47.716;9.070;2022-11-12T11:07:22;98480.81;;;10.86;100.00
6514;BME280;3290;47.716;9.070;2022-11-12T11:09:58;98471.78;;;10.89;100.00
6514;BME280;3290;47.716;9.070;2022-11-12T11:12:32;98479.47;;;10.54;100.00
6514;BME280;3290;47.716;9.070;2022-11-12T11:17:36;98453.69;;;10.79;100.00
6514;BME280;3290;47.716;9.070;2022-11-12T11:20:15;98449.88;;;10.68;100.00
6514;BME280;3290;47.716;9.070;2022-11-12T11:22:52;98448.03;;;10.90;100.00
6514;BME280;3290;47.716;9.070;2022-11-12T11:25:24;98453.91;;;10.56;100.00
6514;BME280;3290;47.716;9.070;2022-11-12T11:30:32;98448.69;;;10.70;100.00
6514;BME280;3290;47.716;9.070;2022-11-12T11:33:17;98449.03;;;10.67;100.00
6514;BME280;3290;47.716;9.070;2022-11-12T11:52:03;98440.84;;;10.70;100.00
6514;BME280;3290;47.716;9.070;2022-11-12T11:56:59;98436.97;;;10.80;100.00
6514;BME280;3290;47.716;9.070;2022-11-12T12:02:21;98428.41;;;11.01;100.00
6514;BME280;3290;47.716;9.070;2022-11-12T12:10:38;98420.09;;;11.26;100.00
6514;BME280;3290;47.716;9.070;2022-11-12T12:23:39;98400.81;;;11.05;100.00
6514;BME280;3290;47.716;9.070;2022-11-12T12:26:15;98408.69;;;11.19;100.00
6514;BME280;3290;47.716;9.070;2022-11-12T12:31:19;98402.81;;;11.03;100.00
6514;BME280;3290;47.716;9.070;2022-11-12T12:33:56;98405.88;;;11.20;100.00
6514;BME280;3290;47.716;9.070;2022-11-12T12:36:33;98398.22;;;10.90;100.00
6514;BME280;3290;47.716;9.070;2022-11-12T12:44:53;98390.69;;;11.16;100.00
6514;BME280;3290;47.716;9.070;2022-11-12T12:47:34;98390.22;;;11.13;100.00
6514;BME280;3290;47.716;9.070;2022-11-12T12:50:04;98384.72;;;11.22;100.00
6514;BME280;3290;47.716;9.070;2022-11-12T12:55:50;98377.03;;;11.06;100.00
6514;BME280;3290;47.716;9.070;2022-11-12T12:58:46;98370.34;;;10.89;100.00
6514;BME280;3290;47.716;9.070;2022-11-12T13:04:05;98371.59;;;11.22;100.00
6514;BME280;3290;47.716;9.070;2022-11-12T13:19:32;98357.16;;;11.12;100.00
6514;BME280;3290;47.716;9.070;2022-11-12T13:32:55;98345.66;;;10.84;100.00
6514;BME280;3290;47.716;9.070;2022-11-12T13:35:29;98340.31;;;10.77;100.00
6514;BME280;3290;47.716;9.070;2022-11-12T13:40:56;98339.34;;;10.78;100.00
6514;BME280;3290;47.716;9.070;2022-11-12T13:43:39;98344.50;;;10.72;100.00
6514;BME280;3290;47.716;9.070;2022-11-12T13:49:01;98347.75;;;10.88;100.00
6514;BME280;3290;47.716;9.070;2022-11-12T13:51:35;98344.63;;;11.28;100.00
6514;BME280;3290;47.716;9.070;2022-11-12T13:56:49;98340.25;;;10.85;100.00
6514;BME280;3290;47.716;9.070;2022-11-12T13:59:24;98335.25;;;11.19;100.00
6514;BME280;3290;47.716;9.070;2022-11-12T14:01:50;98336.69;;;11.07;100.00
6514;BME280;3290;47.716;9.070;2022-11-12T14:04:18;98340.63;;;11.32;100.00
6514;BME280;3290;47.716;9.070;2022-11-12T14:06:52;98340.25;;;11.00;100.00
6514;BME280;3290;47.716;9.070;2022-11-12T14:25:32;98338.16;;;10.95;100.00
6514;BME280;3290;47.716;9.070;2022-11-12T14:27:58;98335.91;;;10.92;100.00
6514;BME280;3290;47.716;9.070;2022-11-12T14:30:26;98343.69;;;10.86;100.00
6514;BME280;3290;47.716;9.070;2022-11-12T14:33:07;98338.16;;;10.52;100.00
6514;BME280;3290;47.716;9.070;2022-11-12T14:35:35;98337.97;;;10.82;100.00
6514;BME280;3290;47.716;9.070;2022-11-12T14:40:54;98337.19;;;10.82;100.00
6514;BME280;3290;47.716;9.070;2022-11-12T14:43:30;98337.78;;;10.98;100.00
6514;BME280;3290;47.716;9.070;2022-11-12T14:45:58;98337.44;;;11.01;100.00
6514;BME280;3290;47.716;9.070;2022-11-12T14:48:25;98335.91;;;10.78;100.00
6514;BME280;3290;47.716;9.070;2022-11-12T14:50:56;98331.47;;;10.78;100.00
6514;BME280;3290;47.716;9.070;2022-11-12T14:53:38;98330.41;;;10.87;100.00
6514;BME280;3290;47.716;9.070;2022-11-12T14:56:06;98333.91;;;10.94;100.00
6514;BME280;3290;47.716;9.070;2022-11-12T14:58:36;98328.94;;;10.71;100.00
6514;BME280;3290;47.716;9.070;2022-11-12T15:01:19;98320.09;;;10.72;100.00
6514;BME280;3290;47.716;9.070;2022-11-12T15:03:45;98316.19;;;10.53;100.00
6514;BME280;3290;47.716;9.070;2022-11-12T15:06:10;98311.94;;;10.67;100.00
6514;BME280;3290;47.716;9.070;2022-11-12T15:08:38;98306.88;;;10.65;100.00
6514;BME280;3290;47.716;9.070;2022-11-12T15:13:42;98298.28;;;10.57;100.00
6514;BME280;3290;47.716;9.070;2022-11-12T15:16:10;98292.63;;;10.68;100.00
6514;BME280;3290;47.716;9.070;2022-11-12T15:18:37;98298.84;;;10.67;100.00
6514;BME280;3290;47.716;9.070;2022-11-12T15:21:11;98300.38;;;10.47;100.00
6514;BME280;3290;47.716;9.070;2022-11-12T15:23:48;98302.16;;;10.32;100.00
6514;BME280;3290;47.716;9.070;2022-11-12T15:26:31;98306.59;;;10.60;100.00
6514;BME280;3290;47.716;9.070;2022-11-12T15:29:30;98292.63;;;10.68;100.00
6514;BME280;3290;47.716;9.070;2022-11-12T15:37:08;98316.63;;;10.57;100.00
6514;BME280;3290;47.716;9.070;2022-11-12T15:39:40;98309.44;;;10.59;100.00
6514;BME280;3290;47.716;9.070;2022-11-12T15:42:16;98320.25;;;10.27;100.00
6514;BME280;3290;47.716;9.070;2022-11-12T15:44:42;98312.28;;;10.35;100.00
6514;BME280;3290;47.716;9.070;2022-11-12T15:47:18;98301.19;;;10.47;100.00